createdAt,value
2022-10-20T00:02:11.583Z,-62
2022-10-20T00:04:38.214Z,-63
2022-10-20T00:07:04.756Z,-62
2022-10-20T00:09:31.332Z,-62
2022-10-20T00:11:57.841Z,-62
2022-10-20T00:14:24.330Z,-62
2022-10-20T00:16:50.842Z,-62
2022-10-20T00:19:17.443Z,-62
2022-10-20T00:21:44.013Z,-62
2022-10-20T00:24:10.514Z,-62
2022-10-20T00:26:37.493Z,-62
2022-10-20T00:29:04.710Z,-62
2022-10-20T00:31:32.135Z,-62
2022-10-20T00:33:59.061Z,-62
2022-10-20T00:36:26.178Z,-62
2022-10-20T00:38:58.417Z,-61
2022-10-20T00:41:25.033Z,-62
2022-10-20T00:43:57.499Z,-62
2022-10-20T00:46:45.480Z,-63
2022-10-20T00:49:21.061Z,-60
2022-10-20T00:51:49.385Z,-61
2022-10-20T00:54:19.722Z,-61
2022-10-20T00:56:49.105Z,-61
2022-10-20T00:59:20.077Z,-61
2022-10-20T01:01:46.800Z,-61
2022-10-20T01:04:13.641Z,-61
2022-10-20T01:06:40.456Z,-61
2022-10-20T01:09:07.739Z,-61
2022-10-20T01:12:10.027Z,-61
2022-10-20T01:15:14.674Z,-61
2022-10-20T01:17:47.421Z,-61
2022-10-20T01:20:36.874Z,-61
2022-10-20T01:23:18.669Z,-61
2022-10-20T01:26:11.614Z,-61
2022-10-20T01:28:38.159Z,-61
2022-10-20T01:31:16.366Z,-61
2022-10-20T01:34:06.130Z,-61
2022-10-20T01:36:46.652Z,-61
2022-10-20T01:39:28.514Z,-61
2022-10-20T01:42:01.170Z,-61
2022-10-20T01:44:30.400Z,-61
2022-10-20T01:46:58.701Z,-61
2022-10-20T01:49:26.502Z,-61
2022-10-20T01:51:53.889Z,-61
2022-10-20T01:54:29.449Z,-61
2022-10-20T01:57:39.550Z,-61
2022-10-20T02:00:11.408Z,-61
2022-10-20T02:02:52.967Z,-62
2022-10-20T02:05:33.669Z,-61
2022-10-20T02:08:18.571Z,-61
2022-10-20T02:10:48.688Z,-62
2022-10-20T02:13:18.166Z,-61
2022-10-20T02:15:53.959Z,-62
2022-10-20T02:18:42.421Z,-62
2022-10-20T02:21:10.302Z,-62
2022-10-20T02:23:40.474Z,-62
2022-10-20T02:26:09.515Z,-62
2022-10-20T02:28:40.776Z,-62
2022-10-20T02:31:08.198Z,-62
2022-10-20T02:33:35.743Z,-62
2022-10-20T02:36:05.817Z,-62
2022-10-20T02:38:32.741Z,-62
2022-10-20T02:40:59.371Z,-62
2022-10-20T02:43:25.917Z,-62
2022-10-20T02:45:52.418Z,-62
2022-10-20T02:48:18.972Z,-62
2022-10-20T02:50:45.445Z,-62
2022-10-20T02:53:11.956Z,-65
2022-10-20T02:55:38.732Z,-62
2022-10-20T02:58:05.215Z,-62
2022-10-20T03:00:32.064Z,-62
2022-10-20T03:02:58.726Z,-61
2022-10-20T03:05:25.255Z,-61
2022-10-20T03:07:51.824Z,-61
2022-10-20T03:10:18.404Z,-62
2022-10-20T03:12:45.123Z,-62
2022-10-20T03:15:11.932Z,-64
2022-10-20T03:17:38.729Z,-61
2022-10-20T03:22:45.620Z,-62
2022-10-20T03:25:12.138Z,-62
2022-10-20T03:27:38.849Z,-62
2022-10-20T03:30:06.157Z,-61
2022-10-20T03:32:32.727Z,-61
2022-10-20T03:34:59.248Z,-61
2022-10-20T03:37:25.733Z,-61
2022-10-20T03:39:52.429Z,-61
2022-10-20T03:42:18.968Z,-61
2022-10-20T03:44:46.035Z,-61
2022-10-20T03:47:13.708Z,-61
2022-10-20T03:49:40.705Z,-62
2022-10-20T03:52:07.264Z,-61
2022-10-20T03:54:36.077Z,-62
2022-10-20T03:57:06.807Z,-62
2022-10-20T03:59:34.837Z,-62
2022-10-20T04:02:01.559Z,-63
2022-10-20T04:04:28.173Z,-63
2022-10-20T04:06:54.718Z,-60
2022-10-20T04:09:21.263Z,-62
2022-10-20T04:11:47.791Z,-62
2022-10-20T04:14:14.580Z,-62
2022-10-20T04:16:42.117Z,-62
2022-10-20T04:19:08.898Z,-62
2022-10-20T04:21:35.407Z,-62
2022-10-20T04:24:02.714Z,-62
2022-10-20T04:26:29.235Z,-61
2022-10-20T04:28:57.198Z,-61
2022-10-20T04:31:23.713Z,-62
2022-10-20T04:33:50.219Z,-61
2022-10-20T04:36:16.819Z,-61
2022-10-20T04:38:43.874Z,-62
2022-10-20T04:41:10.441Z,-62
2022-10-20T04:43:36.969Z,-62
2022-10-20T04:46:08.306Z,-61
2022-10-20T04:48:36.228Z,-62
2022-10-20T04:51:08.424Z,-61
2022-10-20T04:53:35.660Z,-61
2022-10-20T04:56:03.143Z,-61
2022-10-20T04:58:29.842Z,-62
2022-10-20T05:01:10.125Z,-61
2022-10-20T05:03:37.456Z,-62
2022-10-20T05:06:15.407Z,-62
2022-10-20T05:08:43.638Z,-62
2022-10-20T05:11:11.909Z,-62
2022-10-20T05:13:38.573Z,-63
2022-10-20T05:16:06.088Z,-62
2022-10-20T05:18:33.287Z,-61
2022-10-20T05:21:15.029Z,-58
2022-10-20T05:23:42.921Z,-58
2022-10-20T05:26:12.715Z,-59
2022-10-20T05:28:42.620Z,-59
2022-10-20T05:31:09.525Z,-58
2022-10-20T05:33:36.735Z,-58
2022-10-20T05:36:10.898Z,-59
2022-10-20T05:38:37.839Z,-60
2022-10-20T05:41:11.888Z,-60
2022-10-20T05:43:39.230Z,-58
2022-10-20T05:46:06.640Z,-59
2022-10-20T05:48:33.661Z,-59
2022-10-20T05:51:21.409Z,-57
2022-10-20T05:53:47.959Z,-59
2022-10-20T05:56:17.941Z,-60
2022-10-20T05:58:46.012Z,-60
2022-10-20T06:01:19.294Z,-61
2022-10-20T06:03:49.411Z,-59
2022-10-20T06:06:16.282Z,-58
2022-10-20T06:08:42.976Z,-61
2022-10-20T06:11:12.391Z,-58
2022-10-20T06:13:39.036Z,-59
2022-10-20T06:16:06.970Z,-59
2022-10-20T06:18:34.599Z,-60
2022-10-20T06:21:03.978Z,-58
2022-10-20T06:23:30.514Z,-60
2022-10-20T06:26:02.547Z,-58
2022-10-20T06:28:31.474Z,-58
2022-10-20T06:30:58.013Z,-63
2022-10-20T06:33:24.963Z,-63
2022-10-20T06:35:51.785Z,-62
2022-10-20T06:38:18.264Z,-62
2022-10-20T06:40:44.744Z,-62
2022-10-20T06:43:11.997Z,-61
2022-10-20T06:45:38.463Z,-60
2022-10-20T06:48:05.286Z,-62
2022-10-20T06:50:34.106Z,-61
2022-10-20T06:53:00.953Z,-64
2022-10-20T06:55:27.433Z,-60
2022-10-20T06:57:53.935Z,-61
2022-10-20T07:00:20.984Z,-60
2022-10-20T07:02:47.472Z,-61
2022-10-20T07:05:14.043Z,-60
2022-10-20T07:07:41.620Z,-60
2022-10-20T07:10:08.475Z,-60
2022-10-20T07:12:35.485Z,-60
2022-10-20T07:15:05.100Z,-59
2022-10-20T07:17:32.170Z,-59
2022-10-20T07:19:58.670Z,-59
2022-10-20T07:22:25.217Z,-60
2022-10-20T07:24:51.993Z,-60
2022-10-20T07:27:18.466Z,-60
2022-10-20T07:29:45.048Z,-60
2022-10-20T07:32:11.542Z,-61
2022-10-20T07:34:38.028Z,-60
2022-10-20T07:37:04.772Z,-61
2022-10-20T07:39:31.347Z,-60
2022-10-20T07:41:57.871Z,-59
2022-10-20T07:44:24.457Z,-59
2022-10-20T07:46:51.054Z,-59
2022-10-20T07:52:04.411Z,-59
2022-10-20T07:54:31.052Z,-59
2022-10-20T07:56:57.713Z,-60
2022-10-20T07:59:24.532Z,-58
2022-10-20T08:01:54.651Z,-60
2022-10-20T08:04:23.959Z,-59
2022-10-20T08:06:50.446Z,-60
2022-10-20T08:09:17.074Z,-59
2022-10-20T08:11:43.554Z,-60
2022-10-20T08:14:10.158Z,-60
2022-10-20T08:16:37.125Z,-60
2022-10-20T08:19:10.630Z,-60
2022-10-20T08:21:37.149Z,-59
2022-10-20T08:24:03.967Z,-59
2022-10-20T08:26:30.497Z,-62
2022-10-20T08:28:57.090Z,-60
2022-10-20T08:31:23.822Z,-58
2022-10-20T08:33:52.857Z,-59
2022-10-20T08:36:22.110Z,-60
2022-10-20T08:38:48.976Z,-60
2022-10-20T08:41:21.522Z,-62
2022-10-20T08:43:51.625Z,-60
2022-10-20T08:46:20.617Z,-59
2022-10-20T08:48:48.879Z,-60
2022-10-20T08:51:19.965Z,-59
2022-10-20T08:53:48.776Z,-60
2022-10-20T08:56:15.549Z,-60
2022-10-20T08:58:46.461Z,-60
2022-10-20T09:01:36.617Z,-59
2022-10-20T09:04:13.885Z,-61
2022-10-20T09:06:44.075Z,-59
2022-10-20T09:09:18.059Z,-62
2022-10-20T09:11:44.759Z,-59
2022-10-20T09:14:12.351Z,-61
2022-10-20T09:16:59.353Z,-61
2022-10-20T09:19:27.312Z,-59
2022-10-20T09:21:58.028Z,-59
2022-10-20T09:24:30.060Z,-62
2022-10-20T09:26:59.629Z,-57
2022-10-20T09:29:38.288Z,-59
2022-10-20T09:32:51.420Z,-60
2022-10-20T09:35:30.485Z,-59
2022-10-20T09:37:57.151Z,-59
2022-10-20T09:40:26.421Z,-60
2022-10-20T09:42:57.003Z,-59
2022-10-20T09:45:28.877Z,-62
2022-10-20T09:48:23.713Z,-61
2022-10-20T09:50:55.212Z,-58
2022-10-20T09:53:26.971Z,-58
2022-10-20T09:55:53.727Z,-63
2022-10-20T09:58:30.531Z,-55
2022-10-20T10:01:18.694Z,-58
2022-10-20T10:03:47.762Z,-58
2022-10-20T10:06:28.919Z,-59
2022-10-20T10:08:57.419Z,-63
2022-10-20T10:11:35.565Z,-58
2022-10-20T10:14:03.398Z,-58
2022-10-20T10:16:41.204Z,-60
2022-10-20T10:19:08.109Z,-59
2022-10-20T10:21:51.870Z,-60
2022-10-20T10:24:39.278Z,-60
2022-10-20T10:27:19.804Z,-59
2022-10-20T10:29:48.850Z,-59
2022-10-20T10:32:28.616Z,-59
2022-10-20T10:35:16.575Z,-60
2022-10-20T10:37:45.032Z,-60
2022-10-20T10:40:18.701Z,-62
2022-10-20T10:43:05.655Z,-58
2022-10-20T10:45:44.953Z,-59
2022-10-20T10:48:53.013Z,-61
2022-10-20T10:51:37.998Z,-61
2022-10-20T10:54:25.976Z,-60
2022-10-20T10:57:00.469Z,-60
2022-10-20T10:59:36.013Z,-60
2022-10-20T11:02:36.853Z,-61
2022-10-20T11:05:22.539Z,-61
2022-10-20T11:08:13.739Z,-60
2022-10-20T11:11:00.125Z,-62
2022-10-20T11:14:04.937Z,-61
2022-10-20T11:17:05.518Z,-61
2022-10-20T11:22:33.747Z,-64
2022-10-20T11:25:29.779Z,-65
2022-10-20T11:27:58.968Z,-65
2022-10-20T11:30:27.517Z,-65
2022-10-20T11:33:03.392Z,-65
2022-10-20T11:35:44.838Z,-65
2022-10-20T11:38:20.945Z,-66
2022-10-20T11:40:59.481Z,-65
2022-10-20T11:43:29.303Z,-65
2022-10-20T11:46:08.111Z,-65
2022-10-20T11:48:47.427Z,-65
2022-10-20T11:51:31.905Z,-65
2022-10-20T11:53:58.757Z,-65
2022-10-20T11:57:05.804Z,-65
2022-10-20T11:59:57.840Z,-65
2022-10-20T12:03:06.566Z,-65
2022-10-20T12:06:14.868Z,-65
2022-10-20T12:09:25.739Z,-64
2022-10-20T12:12:00.504Z,-65
2022-10-20T12:14:42.752Z,-65
2022-10-20T12:17:36.325Z,-65
2022-10-20T12:20:20.963Z,-65
2022-10-20T12:22:53.183Z,-65
2022-10-20T12:25:25.724Z,-65
2022-10-20T12:28:22.640Z,-66
2022-10-20T12:30:59.526Z,-66
2022-10-20T12:33:42.751Z,-66
2022-10-20T12:36:18.865Z,-66
2022-10-20T12:38:52.341Z,-66
2022-10-20T12:41:30.548Z,-66
2022-10-20T12:44:15.344Z,-65
2022-10-20T12:46:51.589Z,-65
2022-10-20T12:49:33.388Z,-65
2022-10-20T12:52:02.122Z,-65
2022-10-20T12:54:36.594Z,-65
2022-10-20T12:57:25.160Z,-65
2022-10-20T12:59:54.622Z,-65
2022-10-20T13:02:24.164Z,-65
2022-10-20T13:05:08.813Z,-66
2022-10-20T13:07:52.449Z,-66
2022-10-20T13:10:31.215Z,-66
2022-10-20T13:13:03.773Z,-66
2022-10-20T13:15:36.438Z,-66
2022-10-20T13:18:12.454Z,-66
2022-10-20T13:20:57.350Z,-66
2022-10-20T13:23:29.937Z,-64
2022-10-20T13:26:02.832Z,-65
2022-10-20T13:28:32.394Z,-64
2022-10-20T13:31:32.728Z,-64
2022-10-20T13:34:18.469Z,-65
2022-10-20T13:37:21.655Z,-67
2022-10-20T13:40:23.385Z,-64
2022-10-20T13:43:09.345Z,-65
2022-10-20T13:46:16.884Z,-65
2022-10-20T13:49:04.751Z,-65
2022-10-20T13:51:42.686Z,-65
2022-10-20T13:54:22.214Z,-65
2022-10-20T13:56:50.572Z,-65
2022-10-20T13:59:20.775Z,-63
2022-10-20T14:01:57.207Z,-66
2022-10-20T14:04:30.370Z,-64
2022-10-20T14:07:05.929Z,-64
2022-10-20T14:09:32.468Z,-64
2022-10-20T14:12:06.410Z,-65
2022-10-20T14:14:33.664Z,-64
2022-10-20T14:17:06.584Z,-64
2022-10-20T14:19:33.840Z,-64
2022-10-20T14:22:23.157Z,-65
2022-10-20T14:24:52.812Z,-65
2022-10-20T14:27:23.308Z,-65
2022-10-20T14:29:51.731Z,-65
2022-10-20T14:32:23.225Z,-65
2022-10-20T14:34:58.962Z,-65
2022-10-20T14:37:28.452Z,-65
2022-10-20T14:39:55.056Z,-65
2022-10-20T14:42:27.475Z,-66
2022-10-20T14:44:57.403Z,-66
2022-10-20T14:47:25.084Z,-66
2022-10-20T14:49:54.645Z,-66
2022-10-20T14:52:24.013Z,-66
2022-10-20T14:54:51.741Z,-65
2022-10-20T14:57:18.714Z,-64
2022-10-20T15:00:04.185Z,-65
2022-10-20T15:02:34.549Z,-64
2022-10-20T15:05:42.584Z,-65
2022-10-20T15:08:24.138Z,-64
2022-10-20T15:10:50.691Z,-64
2022-10-20T15:13:29.825Z,-65
2022-10-20T15:15:57.964Z,-65
2022-10-20T15:18:25.512Z,-64
2022-10-20T15:20:54.300Z,-64
2022-10-20T15:23:29.331Z,-64
2022-10-20T15:26:25.190Z,-64
2022-10-20T15:28:52.205Z,-63
2022-10-20T15:31:24.500Z,-64
2022-10-20T15:33:52.183Z,-62
2022-10-20T15:36:28.459Z,-63
2022-10-20T15:38:56.518Z,-65
2022-10-20T15:41:25.571Z,-65
2022-10-20T15:43:53.197Z,-65
2022-10-20T15:46:20.936Z,-65
2022-10-20T15:48:47.575Z,-64
2022-10-20T15:51:23.623Z,-63
2022-10-20T15:53:50.239Z,-63
2022-10-20T15:56:18.009Z,-64
2022-10-20T15:58:45.190Z,-64
2022-10-20T16:01:17.204Z,-64
2022-10-20T16:03:44.423Z,-65
2022-10-20T16:06:15.618Z,-64
2022-10-20T16:08:47.238Z,-64
2022-10-20T16:11:17.156Z,-65
2022-10-20T16:13:44.102Z,-64
2022-10-20T16:16:20.241Z,-64
2022-10-20T16:18:47.581Z,-63
2022-10-20T16:21:14.226Z,-63
2022-10-20T16:23:42.631Z,-64
2022-10-20T16:26:13.178Z,-64
2022-10-20T16:28:42.093Z,-64
2022-10-20T16:31:11.369Z,-63
2022-10-20T16:33:38.198Z,-64
2022-10-20T16:38:57.567Z,-64
2022-10-20T16:41:24.548Z,-64
2022-10-20T16:43:51.098Z,-64
2022-10-20T16:46:17.839Z,-64
2022-10-20T16:48:47.591Z,-64
2022-10-20T16:51:15.573Z,-65
2022-10-20T16:53:42.143Z,-65
2022-10-20T16:56:08.934Z,-65
2022-10-20T16:58:35.588Z,-64
2022-10-20T17:01:04.238Z,-64
2022-10-20T17:03:31.241Z,-63
2022-10-20T17:06:00.877Z,-65
2022-10-20T17:08:34.010Z,-66
2022-10-20T17:11:03.954Z,-66
2022-10-20T17:13:30.680Z,-65
2022-10-20T17:16:02.884Z,-64
2022-10-20T17:18:29.377Z,-64
2022-10-20T17:20:55.924Z,-60
2022-10-20T17:23:23.780Z,-58
2022-10-20T17:25:51.891Z,-59
2022-10-20T17:28:19.462Z,-58
2022-10-20T17:30:47.736Z,-58
2022-10-20T17:33:14.263Z,-60
2022-10-20T17:35:41.019Z,-58
2022-10-20T17:38:07.590Z,-62
2022-10-20T17:40:38.236Z,-58
2022-10-20T17:43:05.255Z,-60
2022-10-20T17:45:34.977Z,-59
2022-10-20T17:48:04.771Z,-59
2022-10-20T17:50:31.668Z,-58
2022-10-20T17:53:01.488Z,-59
2022-10-20T17:55:28.713Z,-59
2022-10-20T17:57:55.690Z,-58
2022-10-20T18:00:31.794Z,-58
2022-10-20T18:03:08.707Z,-62
2022-10-20T18:05:38.175Z,-58
2022-10-20T18:08:04.825Z,-58
2022-10-20T18:10:31.316Z,-59
2022-10-20T18:12:57.843Z,-57
2022-10-20T18:15:24.380Z,-58
2022-10-20T18:17:50.894Z,-58
2022-10-20T18:20:19.705Z,-61
2022-10-20T18:22:46.226Z,-59
2022-10-20T18:25:12.755Z,-60
2022-10-20T18:27:39.275Z,-60
2022-10-20T18:30:08.160Z,-59
2022-10-20T18:32:36.647Z,-59
2022-10-20T18:35:03.517Z,-59
2022-10-20T18:37:30.020Z,-59
2022-10-20T18:39:56.518Z,-58
2022-10-20T18:42:23.079Z,-59
2022-10-20T18:44:49.614Z,-59
2022-10-20T18:47:16.108Z,-60
2022-10-20T18:49:42.607Z,-60
2022-10-20T18:52:09.157Z,-60
2022-10-20T18:54:35.726Z,-59
2022-10-20T18:57:02.243Z,-60
2022-10-20T18:59:28.706Z,-60
2022-10-20T19:01:55.227Z,-60
2022-10-20T19:04:21.923Z,-58
2022-10-20T19:06:48.594Z,-59
2022-10-20T19:09:19.384Z,-58
2022-10-20T19:11:47.383Z,-58
2022-10-20T19:14:14.737Z,-60
2022-10-20T19:16:44.867Z,-60
2022-10-20T19:19:11.618Z,-58
2022-10-20T19:21:38.613Z,-58
2022-10-20T19:24:06.951Z,-58
2022-10-20T19:26:37.960Z,-58
2022-10-20T19:29:08.769Z,-58
2022-10-20T19:31:42.510Z,-58
2022-10-20T19:34:16.581Z,-58
2022-10-20T19:36:46.695Z,-58
2022-10-20T19:39:15.645Z,-58
2022-10-20T19:41:42.238Z,-58
2022-10-20T19:44:12.470Z,-60
2022-10-20T19:46:40.263Z,-60
2022-10-20T19:51:34.801Z,-58
2022-10-20T19:54:01.525Z,-61
2022-10-20T19:56:28.341Z,-59
2022-10-20T19:58:56.316Z,-60
2022-10-20T20:01:23.533Z,-59
2022-10-20T20:03:50.102Z,-58
2022-10-20T20:06:18.793Z,-59
2022-10-20T20:08:48.596Z,-59
2022-10-20T20:11:23.908Z,-59
2022-10-20T20:13:52.826Z,-59
2022-10-20T20:16:19.977Z,-58
2022-10-20T20:18:46.813Z,-61
2022-10-20T20:21:13.866Z,-60
2022-10-20T20:23:54.745Z,-59
2022-10-20T20:26:26.225Z,-58
2022-10-20T20:28:54.410Z,-58
2022-10-20T20:31:22.011Z,-58
2022-10-20T20:33:48.837Z,-57
2022-10-20T20:36:15.815Z,-58
2022-10-20T20:38:42.445Z,-58
2022-10-20T20:41:17.757Z,-58
2022-10-20T20:43:47.928Z,-57
2022-10-20T20:46:16.731Z,-58
2022-10-20T20:48:43.626Z,-58
2022-10-20T20:51:11.649Z,-58
2022-10-20T20:53:39.627Z,-58
2022-10-20T20:56:09.654Z,-58
2022-10-20T20:58:36.810Z,-58
2022-10-20T21:01:12.797Z,-58
2022-10-20T21:03:39.796Z,-58
2022-10-20T21:06:15.252Z,-58
2022-10-20T21:08:43.691Z,-58
2022-10-20T21:11:21.880Z,-58
2022-10-20T21:13:50.478Z,-57
2022-10-20T21:16:19.697Z,-58
2022-10-20T21:18:48.386Z,-58
2022-10-20T21:21:17.308Z,-58
2022-10-20T21:23:44.464Z,-58
2022-10-20T21:26:12.438Z,-57
2022-10-20T21:28:39.454Z,-58
2022-10-20T21:31:07.897Z,-58
2022-10-20T21:33:36.141Z,-59
2022-10-20T21:36:05.002Z,-59
2022-10-20T21:38:32.628Z,-58
2022-10-20T21:41:08.031Z,-57
2022-10-20T21:43:36.768Z,-57
2022-10-20T21:46:10.500Z,-58
2022-10-20T21:48:37.025Z,-58
2022-10-20T21:51:16.483Z,-59
2022-10-20T21:53:43.333Z,-58
2022-10-20T21:56:11.750Z,-58
2022-10-20T21:58:39.076Z,-58
2022-10-20T22:01:17.319Z,-59
2022-10-20T22:03:45.449Z,-58
2022-10-20T22:06:13.437Z,-58
2022-10-20T22:08:42.685Z,-59
2022-10-20T22:11:14.686Z,-57
2022-10-20T22:13:41.653Z,-58
2022-10-20T22:16:15.150Z,-57
2022-10-20T22:18:42.219Z,-58
2022-10-20T22:21:17.746Z,-58
2022-10-20T22:23:45.277Z,-58
2022-10-20T22:26:12.398Z,-58
2022-10-20T22:28:39.467Z,-58
2022-10-20T22:31:07.457Z,-58
2022-10-20T22:33:34.730Z,-58
2022-10-20T22:36:01.243Z,-58
2022-10-20T22:38:27.770Z,-59
2022-10-20T22:40:58.878Z,-58
2022-10-20T22:43:25.958Z,-59
2022-10-20T22:45:52.539Z,-58
2022-10-20T22:48:19.437Z,-59
2022-10-20T22:50:46.038Z,-59
2022-10-20T22:53:12.687Z,-58
2022-10-20T22:55:39.205Z,-59
2022-10-20T22:58:05.704Z,-58
2022-10-20T23:00:32.320Z,-59
2022-10-20T23:02:58.990Z,-59
2022-10-20T23:05:25.549Z,-58
2022-10-20T23:07:52.245Z,-59
2022-10-20T23:10:18.729Z,-58
2022-10-20T23:12:45.246Z,-59
2022-10-20T23:15:11.998Z,-58
2022-10-20T23:17:39.145Z,-58
2022-10-20T23:20:06.282Z,-57
2022-10-20T23:22:32.888Z,-65
2022-10-20T23:24:59.506Z,-61
2022-10-20T23:27:26.034Z,-63
2022-10-20T23:29:52.600Z,-62
2022-10-20T23:32:19.290Z,-64
2022-10-20T23:34:45.851Z,-64
2022-10-20T23:37:12.366Z,-63
2022-10-20T23:39:39.230Z,-65
2022-10-20T23:42:07.320Z,-64
2022-10-20T23:44:34.300Z,-64
2022-10-20T23:47:00.852Z,-62
2022-10-20T23:49:28.033Z,-64
2022-10-20T23:51:54.646Z,-64
2022-10-20T23:54:21.213Z,-63
2022-10-20T23:56:47.779Z,-64
2022-10-20T23:59:14.425Z,-63
